Time;durP1;ratioP1;P1;durP2;ratioP2;P2;SDS_P1;SDS_P2;PMS_P1;PMS_P2;Temp;Humidity;BMP_temperature;BMP_pressure;BME280_temperature;BME280_humidity;BME280_pressure;Samples;Min_cycle;Max_cycle;Signal;HPM_P1;HPM_P2
2022/04/05 00:00:48;;;;;;;6.38;4.82;;;;;;;2.71;71.55;95999.63;2066517;28;20987;-69
2022/04/05 00:01:49;;;;;;;7.38;4.72;;;;;;;2.76;70.98;95984.75;2078739;28;20200;-69
2022/04/05 00:02:51;;;;;;;11.90;5.47;;;;;;;2.74;71.24;95976.22;2077941;28;20205;-69
2022/04/05 00:03:52;;;;;;;10.73;6.53;;;;;;;2.81;71.26;96000.03;2068406;28;20202;-69
2022/04/05 00:04:54;;;;;;;8.80;5.85;;;;;;;2.77;71.40;95983.00;2066050;28;20588;-69
2022/04/05 00:05:55;;;;;;;10.10;5.40;;;;;;;2.79;71.32;95981.19;2065425;28;20198;-69
2022/04/05 00:06:57;;;;;;;10.45;5.60;;;;;;;2.68;71.46;95957.56;2064972;28;20215;-69
2022/04/05 00:07:58;;;;;;;7.47;5.22;;;;;;;2.83;71.15;95990.47;2075648;28;20197;-69
2022/04/05 00:09:00;;;;;;;9.27;5.72;;;;;;;2.76;71.17;95963.22;2077979;28;20201;-69
2022/04/05 00:10:02;;;;;;;9.35;5.30;;;;;;;2.61;71.26;95941.53;2065412;28;20369;-69
2022/04/05 00:11:04;;;;;;;7.85;5.40;;;;;;;2.81;70.92;95979.34;2066122;28;20207;-69
2022/04/05 00:12:05;;;;;;;6.50;5.10;;;;;;;2.81;71.38;95975.94;2066421;28;20236;-69
2022/04/05 00:13:07;;;;;;;11.77;5.65;;;;;;;2.65;71.58;95978.41;2067167;28;20202;-69
2022/04/05 00:14:09;;;;;;;7.32;4.70;;;;;;;2.67;71.47;95946.41;2067867;28;20199;-69
2022/04/05 00:15:11;;;;;;;10.07;4.28;;;;;;;2.85;71.33;95978.28;2067827;28;20218;-69
2022/04/05 00:16:12;;;;;;;7.57;4.97;;;;;;;2.79;71.54;95976.00;2069530;28;20656;-69
2022/04/05 00:17:14;;;;;;;13.13;6.15;;;;;;;2.92;71.22;95984.84;2067291;28;20197;-69
2022/04/05 00:18:16;;;;;;;8.57;5.72;;;;;;;2.84;71.00;95968.00;2068687;28;20209;-69
2022/04/05 00:19:19;;;;;;;10.32;5.30;;;;;;;2.95;71.26;95992.44;2070324;28;20204;-69
2022/04/05 00:20:21;;;;;;;7.50;4.90;;;;;;;2.96;71.23;95982.97;2070389;28;20304;-70
2022/04/05 00:21:22;;;;;;;7.03;5.07;;;;;;;2.96;71.46;95995.91;2067695;28;20202;-69
2022/04/05 00:22:24;;;;;;;7.18;4.90;;;;;;;2.92;71.70;95979.69;2078016;28;20193;-70
2022/04/05 00:23:25;;;;;;;11.20;5.60;;;;;;;2.96;71.66;95986.38;2079051;28;20263;-69
2022/04/05 00:24:27;;;;;;;7.40;5.10;;;;;;;2.91;71.77;95980.56;2066590;28;20209;-70
2022/04/05 00:25:28;;;;;;;9.23;5.60;;;;;;;2.96;71.45;95985.56;2067297;28;20217;-69
2022/04/05 00:26:30;;;;;;;13.13;5.25;;;;;;;2.97;71.18;95975.09;2067449;28;20650;-69
2022/04/05 00:27:32;;;;;;;9.20;5.20;;;;;;;3.01;71.48;95987.91;2078834;28;20201;-69
2022/04/05 00:28:33;;;;;;;6.90;5.20;;;;;;;2.90;71.04;95963.41;2078021;28;20571;-69
2022/04/05 00:29:34;;;;;;;7.20;4.95;;;;;;;2.99;71.66;95977.63;2068274;28;20554;-69
2022/04/05 00:30:36;;;;;;;8.60;4.80;;;;;;;3.06;70.86;95972.97;2070137;28;20221;-69
2022/04/05 00:31:37;;;;;;;11.55;4.72;;;;;;;3.01;70.71;95965.44;2071020;28;20280;-69
2022/04/05 00:32:39;;;;;;;7.55;5.78;;;;;;;3.03;70.97;95965.38;2076241;28;20225;-70
2022/04/05 00:33:40;;;;;;;8.15;5.55;;;;;;;3.02;70.77;95971.44;2068405;28;20198;-69
2022/04/05 00:34:42;;;;;;;9.98;5.43;;;;;;;3.16;70.78;95975.06;2068663;28;20617;-69
2022/04/05 00:35:44;;;;;;;10.05;5.53;;;;;;;3.12;70.88;95980.47;2066313;28;20297;-69
2022/04/05 00:36:45;;;;;;;13.80;4.55;;;;;;;3.07;70.62;95959.16;2066701;28;20206;-69
2022/04/05 00:37:47;;;;;;;9.07;5.28;;;;;;;3.01;70.48;95949.09;2067919;28;20564;-69
2022/04/05 00:38:49;;;;;;;8.85;5.30;;;;;;;3.13;70.34;95982.13;2067491;28;20219;-69
2022/04/05 00:39:50;;;;;;;6.63;5.03;;;;;;;3.13;70.41;95979.53;2067332;28;20194;-69
2022/04/05 00:40:52;;;;;;;8.20;4.85;;;;;;;2.95;70.49;95945.06;2065771;28;20214;-69
2022/04/05 00:41:53;;;;;;;8.68;5.93;;;;;;;3.10;70.63;95979.72;2067949;28;20210;-69
2022/04/05 00:42:55;;;;;;;9.98;5.18;;;;;;;3.18;70.30;95972.41;2067971;28;20190;-70
2022/04/05 00:43:56;;;;;;;8.38;5.03;;;;;;;3.21;70.00;95972.22;2065492;28;20268;-69
2022/04/05 00:44:58;;;;;;;6.28;4.35;;;;;;;3.20;70.27;95973.16;2067362;28;20559;-69
2022/04/05 00:45:59;;;;;;;6.90;4.60;;;;;;;3.10;70.39;95953.84;2066508;28;20304;-69
2022/04/05 00:47:14;;;;;;;10.10;5.30;;;;;;;3.19;70.25;95962.88;2067409;28;20652;-70
2022/04/05 00:48:31;;;;;;;7.40;4.38;;;;;;;3.18;70.26;95977.56;2065421;28;20224;-69
2022/04/05 00:49:34;;;;;;;11.35;5.45;;;;;;;2.95;70.39;95937.28;2068648;28;20205;-69
2022/04/05 00:50:37;;;;;;;6.35;4.40;;;;;;;3.06;70.55;95954.88;2076393;28;20213;-69
2022/04/05 00:51:39;;;;;;;7.10;4.35;;;;;;;3.10;70.46;95965.00;2074765;28;20208;-70
2022/04/05 00:52:40;;;;;;;9.65;5.22;;;;;;;3.16;70.21;95963.88;2065755;28;20214;-69
2022/04/05 00:53:46;;;;;;;7.88;5.28;;;;;;;3.21;70.44;95973.97;2077515;28;20640;-69
2022/04/05 00:54:50;;;;;;;8.38;4.65;;;;;;;3.15;70.40;95964.78;2077780;28;20204;-69
2022/04/05 00:55:53;;;;;;;9.20;5.40;;;;;;;3.29;69.90;95974.44;2066883;28;20259;-70
2022/04/05 00:56:58;;;;;;;7.30;4.72;;;;;;;3.26;69.84;95965.09;2066545;28;20191;-70
2022/04/05 00:58:02;;;;;;;10.15;5.20;;;;;;;3.25;70.20;95959.97;2067343;28;20653;-70
2022/04/05 00:59:07;;;;;;;9.82;4.88;;;;;;;3.28;70.17;95965.00;2067965;28;20196;-69
2022/04/05 01:00:09;;;;;;;8.35;5.43;;;;;;;3.20;70.25;95943.88;2067450;28;20221;-69
2022/04/05 01:01:15;;;;;;;6.72;3.85;;;;;;;3.28;70.15;95947.72;2067275;28;20198;-69
2022/04/05 01:02:18;;;;;;;6.90;4.68;;;;;;;3.27;69.90;95945.22;2067825;28;20189;-69
2022/04/05 01:03:20;;;;;;;6.43;4.40;;;;;;;3.20;70.30;95936.94;2068529;28;20717;-70
2022/04/05 01:04:22;;;;;;;9.55;4.80;;;;;;;3.33;70.21;95960.44;2067637;28;20562;-69
2022/04/05 01:05:26;;;;;;;11.70;5.60;;;;;;;3.19;70.52;95935.25;2068392;28;20213;-69
2022/04/05 01:06:31;;;;;;;9.27;4.72;;;;;;;3.31;70.50;95947.59;2065907;28;20237;-69
2022/04/05 01:07:35;;;;;;;9.70;4.85;;;;;;;3.30;70.51;95953.66;2070443;28;20217;-69
2022/04/05 01:08:38;;;;;;;6.68;4.85;;;;;;;3.17;70.47;95918.94;2068314;28;20645;-70
2022/04/05 01:09:40;;;;;;;7.82;5.22;;;;;;;3.24;70.48;95912.56;2068906;28;20252;-70
2022/04/05 01:10:41;;;;;;;6.20;3.90;;;;;;;3.46;70.06;95958.06;2066923;28;20222;-70
2022/04/05 01:11:43;;;;;;;5.93;4.38;;;;;;;3.46;69.92;95955.47;2068006;28;20198;-70
2022/04/05 01:12:44;;;;;;;6.75;4.60;;;;;;;3.43;70.45;95948.72;2068053;28;20568;-70
2022/04/05 01:13:46;;;;;;;9.35;5.28;;;;;;;3.43;70.45;95948.72;2069289;28;20229;-70
2022/04/05 01:14:48;;;;;;;8.38;4.45;;;;;;;3.43;70.45;95948.72;2066915;28;20204;-70
2022/04/05 01:15:50;;;;;;;10.60;3.75;;;;;;;3.36;70.52;95940.41;2068960;28;20220;-70
2022/04/05 01:16:52;;;;;;;7.95;4.40;;;;;;;3.48;70.35;95959.66;2074618;28;20205;-69
2022/04/05 01:17:55;;;;;;;6.32;4.45;;;;;;;3.50;70.29;95960.41;2075277;28;20205;-69
2022/04/05 01:18:57;;;;;;;7.28;4.90;;;;;;;3.50;70.41;95964.75;2078901;28;20761;-69
2022/04/05 01:19:59;;;;;;;6.45;4.80;;;;;;;3.53;70.17;95960.28;2077703;28;20275;-69
2022/04/05 01:21:01;;;;;;;8.10;4.28;;;;;;;3.53;70.11;95956.84;2067524;28;20198;-70
2022/04/05 01:22:02;;;;;;;6.22;3.78;;;;;;;3.52;70.46;95958.59;2069576;28;20197;-69
2022/04/05 01:23:04;;;;;;;7.50;4.70;;;;;;;3.43;70.44;95940.09;2074806;28;20212;-69
2022/04/05 01:24:13;;;;;;;9.80;4.97;;;;;;;3.51;70.92;95964.69;2073124;28;20260;-69
2022/04/05 01:25:18;;;;;;;7.35;4.15;;;;;;;3.51;70.77;95954.34;2067552;28;20226;-69
2022/04/05 01:26:20;;;;;;;7.30;4.43;;;;;;;3.53;70.80;95955.09;2074936;28;20209;-70
2022/04/05 01:27:27;;;;;;;8.00;4.82;;;;;;;3.48;70.60;95944.13;2074616;28;20198;-70
2022/04/05 01:28:28;;;;;;;6.75;4.18;;;;;;;3.56;70.51;95951.50;2067382;28;20202;-69
2022/04/05 01:29:31;;;;;;;9.63;3.80;;;;;;;3.49;70.62;95926.84;2068046;28;20260;-69
2022/04/05 01:30:32;;;;;;;6.88;3.60;;;;;;;3.52;70.33;95932.69;2065728;28;20591;-69
2022/04/05 01:31:45;;;;;;;6.38;4.15;;;;;;;3.57;70.52;95942.84;2067382;28;20203;-69
2022/04/05 01:32:46;;;;;;;4.93;3.47;;;;;;;3.47;70.18;95939.03;2068046;28;20210;-69
2022/04/05 01:33:48;;;;;;;8.60;4.97;;;;;;;3.57;70.26;95955.78;2069420;28;20221;-70
2022/04/05 01:34:50;;;;;;;7.22;4.63;;;;;;;3.51;69.86;95932.78;2069191;28;20198;-69
2022/04/05 01:35:51;;;;;;;5.82;3.90;;;;;;;3.56;70.28;95951.50;2065015;28;20202;-69
2022/04/05 01:36:55;;;;;;;9.40;3.95;;;;;;;3.62;70.08;95943.41;2066941;28;20205;-69
2022/04/05 01:37:58;;;;;;;6.50;4.10;;;;;;;3.64;70.26;95944.19;2066853;28;20186;-69
2022/04/05 01:38:59;;;;;;;8.38;3.70;;;;;;;3.45;70.36;95920.13;2066366;28;20237;-69
2022/04/05 01:40:02;;;;;;;6.30;3.67;;;;;;;3.62;70.56;95945.19;2064641;28;20796;-69
2022/04/05 01:41:03;;;;;;;6.03;4.07;;;;;;;3.64;70.12;95949.34;2066004;28;20202;-70
2022/04/05 01:42:09;;;;;;;8.48;3.88;;;;;;;3.66;70.29;95936.34;2068325;28;20194;-69
2022/04/05 01:43:10;;;;;;;9.93;5.10;;;;;;;3.53;70.29;95921.44;2066633;28;20194;-69
2022/04/05 01:44:13;;;;;;;5.85;4.05;;;;;;;3.64;70.70;95941.59;2066683;28;20197;-69
2022/04/05 01:45:15;;;;;;;11.10;5.00;;;;;;;3.64;70.51;95938.16;2066682;28;20245;-69
2022/04/05 01:46:17;;;;;;;8.68;4.68;;;;;;;3.70;70.42;95949.03;2069394;28;20214;-69
2022/04/05 01:47:19;;;;;;;6.93;4.03;;;;;;;3.62;70.38;95930.47;2068266;28;20197;-69
2022/04/05 01:48:20;;;;;;;6.38;4.38;;;;;;;3.71;70.35;95935.19;2067832;28;20206;-69
2022/04/05 01:49:22;;;;;;;6.00;4.20;;;;;;;3.61;70.71;95926.22;2068715;28;20198;-69
2022/04/05 01:50:24;;;;;;;6.55;4.68;;;;;;;3.70;70.83;95936.09;2066299;28;20222;-69
2022/04/05 01:51:26;;;;;;;12.35;5.30;;;;;;;3.69;70.82;95937.00;2067237;28;20202;-69
2022/04/05 01:52:27;;;;;;;5.13;3.20;;;;;;;3.74;71.12;95940.22;2067103;28;20559;-69
2022/04/05 01:53:28;;;;;;;6.65;3.90;;;;;;;3.70;71.10;95928.31;2067969;28;20213;-69
2022/04/05 01:54:30;;;;;;;8.15;4.38;;;;;;;3.63;71.17;95911.44;2069389;28;20659;-69
2022/04/05 01:55:32;;;;;;;6.43;4.20;;;;;;;3.73;71.54;95935.94;2068226;28;20743;-69
2022/04/05 01:57:00;;;;;;;6.63;3.95;;;;;;;3.74;71.37;95932.44;2079037;28;20239;-69
2022/04/05 01:58:02;;;;;;;7.15;4.20;;;;;;;3.71;71.70;95939.53;2070078;28;20229;-69
2022/04/05 01:59:03;;;;;;;7.85;4.10;;;;;;;3.66;71.50;95926.81;2070131;28;20213;-69
2022/04/05 02:00:14;;;;;;;7.30;4.38;;;;;;;3.63;71.63;95926.97;2067612;28;20222;-69
2022/04/05 02:01:18;;;;;;;7.63;4.45;;;;;;;3.70;71.96;95933.50;2070244;28;20194;-69
2022/04/05 02:02:20;;;;;;;6.28;4.20;;;;;;;3.77;71.82;95939.22;2068845;28;20194;-69
2022/04/05 02:03:21;;;;;;;9.07;3.20;;;;;;;3.78;71.68;95935.69;2067743;28;20195;-69
2022/04/05 02:04:23;;;;;;;6.13;4.25;;;;;;;3.84;71.84;95940.56;2069338;28;20221;-69
2022/04/05 02:05:25;;;;;;;8.88;4.00;;;;;;;3.82;71.78;95938.97;2070641;28;20222;-69
2022/04/05 02:06:27;;;;;;;6.50;3.40;;;;;;;3.74;71.85;95932.44;2070668;28;20726;-69
2022/04/05 02:07:29;;;;;;;9.60;4.63;;;;;;;3.79;72.10;95939.13;2068647;28;20556;-69
2022/04/05 02:08:30;;;;;;;5.30;4.30;;;;;;;3.84;71.62;95937.97;2067923;28;20202;-69
2022/04/05 02:09:32;;;;;;;7.90;3.95;;;;;;;3.83;71.72;95938.88;2068690;28;20209;-69
2022/04/05 02:10:33;;;;;;;9.48;4.45;;;;;;;3.74;71.75;95934.19;2069641;28;20245;-69
2022/04/05 02:11:35;;;;;;;5.57;4.15;;;;;;;3.72;72.01;95925.66;2070759;28;20194;-70
2022/04/05 02:12:39;;;;;;;5.60;3.90;;;;;;;3.73;72.04;95927.34;2068805;28;20202;-69
2022/04/05 02:13:40;;;;;;;7.05;4.47;;;;;;;3.76;72.19;95921.97;2069848;28;20249;-69
2022/04/05 02:14:42;;;;;;;5.97;4.35;;;;;;;3.77;72.18;95928.84;2070504;28;20197;-69
2022/04/05 02:15:43;;;;;;;6.30;4.05;;;;;;;3.69;72.59;95915.47;2068549;28;20317;-69
2022/04/05 02:16:45;;;;;;;10.25;4.35;;;;;;;3.71;72.33;95914.47;2068685;28;20204;-69
2022/04/05 02:17:46;;;;;;;5.15;3.72;;;;;;;3.63;72.57;95901.09;2069505;28;20193;-70
2022/04/05 02:18:48;;;;;;;7.55;4.25;;;;;;;3.70;72.65;95919.72;2070231;28;20194;-69
2022/04/05 02:19:50;;;;;;;7.30;4.07;;;;;;;3.74;72.43;95910.88;2066510;28;20198;-69
2022/04/05 02:20:51;;;;;;;6.38;4.00;;;;;;;3.78;72.21;95903.78;2069324;28;20202;-69
2022/04/05 02:21:53;;;;;;;8.68;4.47;;;;;;;3.79;72.37;95915.81;2071163;28;20201;-69
2022/04/05 02:22:55;;;;;;;8.48;4.03;;;;;;;3.80;72.26;95915.72;2079216;28;20201;-69
2022/04/05 02:23:56;;;;;;;7.60;4.07;;;;;;;3.72;72.42;95905.78;2074242;28;20189;-69
2022/04/05 02:24:58;;;;;;;5.82;3.80;;;;;;;3.78;72.35;95919.31;2067558;28;20202;-70
2022/04/05 02:25:59;;;;;;;7.70;4.00;;;;;;;3.78;72.60;95908.97;2069701;28;20311;-70
2022/04/05 02:27:01;;;;;;;7.75;4.18;;;;;;;3.72;72.55;95904.94;2079961;28;20200;-70
2022/04/05 02:28:03;;;;;;;6.28;4.00;;;;;;;3.71;72.33;95906.69;2071642;28;20198;-70
2022/04/05 02:29:04;;;;;;;14.57;4.40;;;;;;;3.74;72.29;95919.50;2071811;28;20897;-70
2022/04/05 02:30:06;;;;;;;7.00;4.15;;;;;;;3.63;72.26;95897.66;2067829;28;20229;-69
2022/04/05 02:31:08;;;;;;;9.23;4.45;;;;;;;3.74;72.16;95922.09;2069113;28;20220;-69
2022/04/05 02:32:10;;;;;;;7.60;3.70;;;;;;;3.73;72.41;95919.56;2069499;28;20225;-69
2022/04/05 02:33:11;;;;;;;7.22;4.18;;;;;;;3.74;72.29;95913.44;2070047;28;20194;-69
2022/04/05 02:34:13;;;;;;;7.70;4.55;;;;;;;3.59;72.21;95889.22;2068286;28;20238;-70
2022/04/05 02:35:14;;;;;;;7.85;3.65;;;;;;;3.70;72.28;95902.41;2069098;28;20232;-70
2022/04/05 02:36:16;;;;;;;8.85;4.25;;;;;;;3.73;72.47;95912.63;2069718;28;20295;-70
2022/04/05 02:37:17;;;;;;;7.38;3.45;;;;;;;3.70;72.37;95915.38;2079742;28;20648;-69
2022/04/05 02:38:19;;;;;;;9.25;4.53;;;;;;;3.63;72.76;95902.84;2079944;28;20189;-69
2022/04/05 02:39:20;;;;;;;6.68;3.97;;;;;;;3.63;72.32;95897.66;2067814;28;20198;-69
2022/04/05 02:40:22;;;;;;;7.90;4.70;;;;;;;3.67;72.76;95907.78;2076755;28;20284;-69
2022/04/05 02:41:23;;;;;;;5.80;4.03;;;;;;;3.69;72.50;95913.72;2076866;28;20204;-70
2022/04/05 02:42:25;;;;;;;7.22;4.40;;;;;;;3.71;72.60;95914.47;2069143;28;20206;-69
2022/04/05 02:43:27;;;;;;;7.13;3.53;;;;;;;3.68;72.86;95918.97;2069479;28;20201;-69
2022/04/05 02:44:28;;;;;;;12.80;5.10;;;;;;;3.43;72.63;95873.66;2070132;28;20210;-69
2022/04/05 02:45:30;;;;;;;6.72;4.10;;;;;;;3.71;72.71;95924.81;2069633;28;20225;-69
2022/04/05 02:46:32;;;;;;;5.97;3.63;;;;;;;3.72;72.44;95917.88;2068827;28;20205;-69
2022/04/05 02:47:34;;;;;;;7.78;4.15;;;;;;;3.72;72.69;95907.53;2070348;28;20202;-69
2022/04/05 02:48:37;;;;;;;6.85;4.05;;;;;;;3.66;72.35;95911.25;2071371;28;20200;-69
2022/04/05 02:49:39;;;;;;;6.82;4.00;;;;;;;3.70;72.80;95907.59;2070294;28;20202;-69
2022/04/05 02:50:41;;;;;;;13.38;3.85;;;;;;;3.61;72.85;95896.88;2068500;28;20232;-69
2022/04/05 02:51:42;;;;;;;8.63;3.88;;;;;;;3.56;72.59;95890.19;2068741;28;20673;-69
2022/04/05 02:52:48;;;;;;;9.05;3.22;;;;;;;3.68;72.50;95903.41;2068157;28;20575;-69
2022/04/05 02:53:49;;;;;;;6.95;3.45;;;;;;;3.68;73.08;95912.03;2068700;28;20209;-69
2022/04/05 02:54:51;;;;;;;5.90;3.63;;;;;;;3.66;73.18;95908.69;2068052;28;20561;-69
2022/04/05 02:55:52;;;;;;;11.43;3.90;;;;;;;3.68;73.05;95914.59;2070042;28;20194;-69
2022/04/05 02:56:54;;;;;;;7.28;4.25;;;;;;;3.67;72.89;95906.94;2065637;28;20198;-69
2022/04/05 02:57:55;;;;;;;6.70;4.70;;;;;;;3.72;72.98;95908.38;2066053;28;20286;-69
2022/04/05 02:58:57;;;;;;;7.60;3.65;;;;;;;3.68;72.83;95912.03;2067465;28;20549;-69
2022/04/05 02:59:58;;;;;;;5.28;3.70;;;;;;;3.68;72.85;95911.19;2067063;28;20194;-69
2022/04/05 03:01:00;;;;;;;6.65;3.78;;;;;;;3.56;72.93;95889.38;2068360;28;20210;-69
2022/04/05 03:02:01;;;;;;;6.80;4.10;;;;;;;3.60;73.44;95910.75;2069171;28;20899;-69
2022/04/05 03:03:04;;;;;;;5.70;4.10;;;;;;;3.47;73.27;95884.66;2069901;28;20214;-69
2022/04/05 03:04:05;;;;;;;7.97;3.80;;;;;;;3.60;73.65;95913.34;2070194;28;20332;-69
2022/04/05 03:05:08;;;;;;;11.35;4.45;;;;;;;3.55;73.04;95898.88;2069737;28;20229;-70
2022/04/05 03:06:10;;;;;;;7.15;3.40;;;;;;;3.67;73.04;95906.94;2069820;28;20264;-70
2022/04/05 03:07:11;;;;;;;6.68;4.25;;;;;;;3.43;72.68;95870.19;2067552;28;20275;-69
2022/04/05 03:08:13;;;;;;;5.72;3.50;;;;;;;3.54;72.75;95875.66;2068432;28;20197;-70
2022/04/05 03:09:14;;;;;;;8.50;4.50;;;;;;;3.67;72.97;95906.94;2069428;28;20194;-69
2022/04/05 03:10:16;;;;;;;5.70;4.15;;;;;;;3.65;73.03;95904.44;2066324;28;20238;-70
2022/04/05 03:11:17;;;;;;;10.18;4.40;;;;;;;3.43;73.16;95883.13;2067431;28;20220;-69
2022/04/05 03:12:21;;;;;;;6.70;4.18;;;;;;;3.67;72.83;95901.75;2068121;28;20244;-69
2022/04/05 03:13:22;;;;;;;9.00;4.25;;;;;;;3.64;73.20;95907.91;2067350;28;20201;-69
2022/04/05 03:14:24;;;;;;;6.15;3.97;;;;;;;3.48;73.15;95881.16;2069215;28;20206;-69
2022/04/05 03:15:27;;;;;;;5.65;3.55;;;;;;;3.62;72.64;95899.41;2066813;28;20251;-70
2022/04/05 03:16:28;;;;;;;8.18;3.50;;;;;;;3.66;72.91;95893.13;2068848;28;20205;-69
2022/04/05 03:17:30;;;;;;;7.75;4.72;;;;;;;3.66;72.62;95906.09;2067266;28;20248;-70
2022/04/05 03:18:31;;;;;;;7.80;4.80;;;;;;;3.63;72.72;95901.09;2068009;28;20212;-70
2022/04/05 03:19:33;;;;;;;9.57;4.35;;;;;;;3.66;72.90;95895.72;2068992;28;20194;-69
2022/04/05 03:20:34;;;;;;;6.30;4.25;;;;;;;3.58;72.81;95890.13;2068170;28;20223;-69
2022/04/05 03:21:36;;;;;;;6.80;4.32;;;;;;;3.50;73.03;95876.75;2069847;28;20198;-70
2022/04/05 03:22:39;;;;;;;4.63;3.40;;;;;;;3.67;72.79;95905.19;2068947;28;20210;-69
2022/04/05 03:23:41;;;;;;;6.53;3.88;;;;;;;3.67;72.93;95918.13;2067803;28;20204;-69
2022/04/05 03:24:43;;;;;;;6.20;3.75;;;;;;;3.53;72.49;95897.31;2069756;28;20293;-69
2022/04/05 03:25:44;;;;;;;6.35;3.72;;;;;;;3.65;72.65;95914.78;2069092;28;20201;-69
2022/04/05 03:26:46;;;;;;;8.82;4.22;;;;;;;3.63;72.44;95906.25;2067846;28;20617;-69
2022/04/05 03:27:47;;;;;;;7.32;3.90;;;;;;;3.67;72.48;95906.94;2068927;28;20213;-69
2022/04/05 03:28:49;;;;;;;8.75;4.70;;;;;;;3.70;72.54;95915.38;2069103;28;20872;-69
2022/04/05 03:29:51;;;;;;;6.85;3.90;;;;;;;3.46;72.25;95878.66;2067808;28;20198;-69
2022/04/05 03:30:52;;;;;;;12.20;4.78;;;;;;;3.66;72.70;95911.25;2070024;28;20201;-69
2022/04/05 03:31:54;;;;;;;5.90;4.00;;;;;;;3.55;72.38;95890.28;2068290;28;20198;-69
2022/04/05 03:32:55;;;;;;;8.23;4.25;;;;;;;3.69;72.20;95920.66;2078943;28;20276;-69
2022/04/05 03:33:57;;;;;;;7.30;4.22;;;;;;;3.65;72.39;95903.59;2079152;28;20216;-69
2022/04/05 03:34:58;;;;;;;8.00;4.63;;;;;;;3.61;72.61;95907.25;2067239;28;20199;-69
2022/04/05 03:36:01;;;;;;;9.68;4.28;;;;;;;3.56;72.52;95897.97;2077781;28;20202;-69
2022/04/05 03:37:02;;;;;;;7.35;4.07;;;;;;;3.54;72.85;95910.16;2075556;28;20201;-70
2022/04/05 03:38:05;;;;;;;7.85;4.28;;;;;;;3.54;72.61;95896.38;2070230;28;20549;-70
2022/04/05 03:39:07;;;;;;;6.20;3.72;;;;;;;3.60;72.56;95905.59;2068308;28;20197;-70
2022/04/05 03:40:10;;;;;;;7.18;3.72;;;;;;;3.58;72.69;95903.06;2067554;28;20218;-69
2022/04/05 03:41:12;;;;;;;12.13;4.55;;;;;;;3.67;72.32;95910.38;2075210;28;20197;-70
2022/04/05 03:42:13;;;;;;;6.05;3.90;;;;;;;3.54;72.29;95897.19;2075648;28;20252;-70
2022/04/05 03:43:15;;;;;;;7.05;4.25;;;;;;;3.66;72.06;95920.78;2069393;28;20209;-70
2022/04/05 03:44:16;;;;;;;8.73;4.15;;;;;;;3.56;72.37;95891.94;2079477;28;20201;-70
2022/04/05 03:45:18;;;;;;;4.90;3.30;;;;;;;3.71;72.00;95917.06;2078766;28;20252;-69
2022/04/05 03:46:19;;;;;;;7.15;4.50;;;;;;;3.61;72.13;95882.19;2069577;28;20190;-70
2022/04/05 03:47:21;;;;;;;5.07;3.33;;;;;;;3.74;72.22;95919.50;2068859;28;20281;-70
2022/04/05 03:48:23;;;;;;;8.48;4.25;;;;;;;3.54;72.46;95893.78;2067630;28;20209;-70
2022/04/05 03:49:24;;;;;;;6.13;3.05;;;;;;;3.69;72.66;95916.28;2068125;28;20194;-70
2022/04/05 03:50:26;;;;;;;7.38;3.90;;;;;;;3.76;72.46;95920.25;2066440;28;20225;-70
2022/04/05 03:51:28;;;;;;;6.03;3.92;;;;;;;3.74;72.15;95923.81;2066548;28;20209;-70
2022/04/05 03:52:29;;;;;;;5.57;3.80;;;;;;;3.71;72.35;95922.22;2068791;28;20194;-70
2022/04/05 03:53:31;;;;;;;4.97;3.50;;;;;;;3.72;72.59;95916.16;2067036;28;20221;-70
2022/04/05 03:54:32;;;;;;;5.90;4.40;;;;;;;3.70;72.55;95923.13;2066318;28;20300;-70
2022/04/05 03:55:34;;;;;;;13.88;4.60;;;;;;;3.72;72.13;95910.97;2069619;28;20214;-70
2022/04/05 03:56:35;;;;;;;6.88;3.90;;;;;;;3.72;72.60;95916.16;2069358;28;20198;-70
2022/04/05 03:57:43;;;;;;;10.73;4.38;;;;;;;3.71;72.71;95913.63;2066966;28;20202;-70
2022/04/05 03:58:44;;;;;;;8.07;3.78;;;;;;;3.74;72.69;95919.50;2066280;28;20202;-70
2022/04/05 03:59:46;;;;;;;5.93;3.85;;;;;;;3.70;72.77;95907.59;2066802;28;20207;-69
2022/04/05 04:00:47;;;;;;;11.32;5.13;;;;;;;3.68;73.07;95908.59;2069989;28;20557;-70
2022/04/05 04:01:49;;;;;;;8.63;4.20;;;;;;;3.67;73.05;95915.53;2067066;28;20205;-69
2022/04/05 04:02:51;;;;;;;5.75;4.03;;;;;;;3.71;73.07;95898.09;2069012;28;20696;-70
2022/04/05 04:03:52;;;;;;;5.53;4.30;;;;;;;3.78;73.27;95921.91;2068820;28;20202;-70
2022/04/05 04:04:54;;;;;;;7.07;4.20;;;;;;;3.67;73.34;95912.94;2067311;28;20190;-70
2022/04/05 04:05:55;;;;;;;7.00;3.90;;;;;;;3.69;73.53;95910.28;2074648;28;20199;-70
2022/04/05 04:06:57;;;;;;;8.75;4.20;;;;;;;3.68;73.53;95913.78;2075566;28;20186;-70
2022/04/05 04:07:59;;;;;;;10.23;3.63;;;;;;;3.71;73.50;95917.06;2068832;28;20194;-70
2022/04/05 04:09:00;;;;;;;6.82;4.10;;;;;;;3.83;73.37;95923.34;2069408;28;20199;-70
2022/04/05 04:10:03;;;;;;;6.47;3.60;;;;;;;3.81;73.98;95924.34;2067151;28;20684;-69
2022/04/05 04:11:04;;;;;;;5.30;3.65;;;;;;;3.80;74.21;95917.47;2066710;28;20194;-69
2022/04/05 04:12:06;;;;;;;9.02;4.20;;;;;;;3.67;74.75;95902.59;2068782;28;20194;-69
2022/04/05 04:13:07;;;;;;;5.53;3.83;;;;;;;3.74;75.08;95927.25;2068244;28;20229;-69
2022/04/05 04:14:09;;;;;;;8.50;4.78;;;;;;;3.73;75.23;95922.16;2066684;28;20194;-69
2022/04/05 04:15:11;;;;;;;8.38;4.00;;;;;;;3.73;74.64;95912.63;2070025;28;20225;-69
2022/04/05 04:16:13;;;;;;;4.95;3.47;;;;;;;3.76;74.84;95917.66;2068739;28;20195;-69
2022/04/05 04:17:14;;;;;;;3.78;2.90;;;;;;;3.74;74.95;95900.50;2066896;28;20201;-69
2022/04/05 04:18:16;;;;;;;8.13;3.72;;;;;;;3.74;75.11;95903.97;2067593;28;20207;-69
2022/04/05 04:19:18;;;;;;;4.22;3.00;;;;;;;3.57;76.25;95880.69;2075055;28;20192;-69
2022/04/05 04:20:19;;;;;;;9.38;4.00;;;;;;;3.71;75.78;95888.56;2074851;28;20313;-69
2022/04/05 04:21:21;;;;;;;7.18;3.50;;;;;;;3.77;76.11;95910.72;2074028;28;20198;-69
2022/04/05 04:22:22;;;;;;;5.65;3.75;;;;;;;3.78;76.38;95908.97;2076467;28;20201;-70
2022/04/05 04:23:24;;;;;;;4.50;3.50;;;;;;;3.65;76.10;95891.47;2069827;28;20751;-70
2022/04/05 04:24:26;;;;;;;8.48;4.20;;;;;;;3.69;75.92;95892.16;2065094;28;20206;-69
2022/04/05 04:25:27;;;;;;;6.13;3.88;;;;;;;3.66;76.14;95894.91;2064089;28;20586;-69
2022/04/05 04:26:28;;;;;;;7.22;4.32;;;;;;;3.65;76.65;95904.44;2068883;28;20675;-69
2022/04/05 04:27:30;;;;;;;6.25;3.45;;;;;;;3.59;76.26;95901.31;2065922;28;20224;-63
2022/04/05 04:28:31;;;;;;;5.28;3.80;;;;;;;3.66;76.33;95900.91;2069176;28;20207;-63
2022/04/05 04:29:34;;;;;;;4.75;3.58;;;;;;;3.61;76.05;95896.88;2062930;28;20202;-63
2022/04/05 04:30:39;;;;;;;5.85;3.45;;;;;;;3.60;76.57;95898.63;2069205;28;20327;-63
2022/04/05 04:31:41;;;;;;;8.18;4.80;;;;;;;3.65;76.43;95904.44;2073660;28;20201;-64
2022/04/05 04:32:43;;;;;;;14.80;4.80;;;;;;;3.61;77.12;95907.25;2072714;28;20198;-63
2022/04/05 04:33:45;;;;;;;9.30;3.90;;;;;;;3.56;77.86;95899.72;2067238;28;20237;-63
2022/04/05 04:34:46;;;;;;;8.90;3.88;;;;;;;3.58;77.81;95890.13;2070652;28;20209;-63
2022/04/05 04:35:48;;;;;;;7.75;4.60;;;;;;;3.56;77.82;95907.50;2067320;28;20206;-61
2022/04/05 04:36:50;;;;;;;7.75;3.72;;;;;;;3.52;78.50;95891.28;2068050;28;20229;-61
2022/04/05 04:37:51;;;;;;;7.85;3.60;;;;;;;3.51;78.71;95894.78;2069557;28;20199;-61
2022/04/05 04:38:54;;;;;;;5.78;3.50;;;;;;;3.56;78.43;95891.94;2068654;28;20832;-61
2022/04/05 04:39:56;;;;;;;6.40;3.85;;;;;;;3.50;78.72;95900.03;2067133;28;20220;-61
2022/04/05 04:40:57;;;;;;;5.72;3.53;;;;;;;3.29;78.60;95871.78;2066832;28;20197;-60
2022/04/05 04:41:59;;;;;;;5.70;3.83;;;;;;;3.38;78.96;95878.22;2068142;28;20209;-61
2022/04/05 04:43:01;;;;;;;6.07;4.05;;;;;;;3.27;79.81;95868.41;2070893;28;20201;-61
2022/04/05 04:44:02;;;;;;;6.25;3.80;;;;;;;3.32;79.92;95876.78;2070795;28;20201;-61
2022/04/05 04:45:04;;;;;;;7.30;4.20;;;;;;;3.47;80.14;95895.00;2068983;28;20235;-61
2022/04/05 04:46:06;;;;;;;4.70;3.15;;;;;;;3.43;80.90;95896.94;2067098;28;20197;-61
2022/04/05 04:47:08;;;;;;;7.95;4.75;;;;;;;3.45;80.59;95892.53;2068361;28;20241;-60
2022/04/05 04:48:09;;;;;;;5.25;3.20;;;;;;;3.30;80.48;95873.44;2067123;28;20674;-61
2022/04/05 04:49:11;;;;;;;6.40;3.70;;;;;;;3.45;79.99;95887.34;2068079;28;20201;-61
2022/04/05 04:50:13;;;;;;;7.05;4.32;;;;;;;3.38;80.35;95870.44;2067026;28;20312;-60
2022/04/05 04:51:15;;;;;;;7.05;4.13;;;;;;;3.43;80.13;95888.31;2067416;28;20563;-61
2022/04/05 04:52:16;;;;;;;5.97;3.55;;;;;;;3.46;80.16;95889.00;2066567;28;20209;-60
2022/04/05 04:53:17;;;;;;;6.53;3.67;;;;;;;3.48;80.32;95882.00;2068659;28;20197;-60
2022/04/05 04:54:19;;;;;;;6.25;4.38;;;;;;;3.41;80.81;95884.97;2068563;28;20802;-60
2022/04/05 04:55:22;;;;;;;6.50;4.13;;;;;;;3.39;81.17;95884.22;2067034;28;20225;-61
2022/04/05 04:56:23;;;;;;;4.90;3.17;;;;;;;3.43;80.91;95888.31;2075332;28;20287;-61